createdAt,value
2023-05-04T00:02:19.455Z,76.06
2023-05-04T00:04:52.683Z,74.56
2023-05-04T00:07:21.639Z,76.20
2023-05-04T00:09:50.922Z,74.37
2023-05-04T00:12:19.904Z,74.49
2023-05-04T00:14:48.656Z,75.19
2023-05-04T00:17:18.963Z,74.14
2023-05-04T00:19:47.647Z,73.76
2023-05-04T00:22:16.962Z,75.25
2023-05-04T00:24:45.940Z,73.78
2023-05-04T00:27:14.683Z,73.70
2023-05-04T00:29:43.295Z,73.20
2023-05-04T00:32:12.494Z,72.07
2023-05-04T00:34:42.430Z,72.48
2023-05-04T00:37:11.091Z,73.86
2023-05-04T00:39:39.984Z,72.25
2023-05-04T00:42:08.587Z,72.48
2023-05-04T00:44:41.140Z,73.29
2023-05-04T00:47:10.359Z,73.11
2023-05-04T00:49:39.117Z,71.48
2023-05-04T00:52:09.629Z,71.75
2023-05-04T00:54:38.669Z,72.40
2023-05-04T00:57:07.866Z,72.28
2023-05-04T00:59:36.560Z,70.55
2023-05-04T01:02:05.532Z,72.06
2023-05-04T01:04:34.211Z,71.27
2023-05-04T01:07:11.061Z,71.00
2023-05-04T01:09:44.612Z,72.00
2023-05-04T01:12:17.949Z,71.56
2023-05-04T01:14:48.332Z,70.08
2023-05-04T01:17:17.547Z,71.40
2023-05-04T01:19:48.382Z,70.64
2023-05-04T01:22:18.696Z,70.22
2023-05-04T01:24:47.453Z,69.81
2023-05-04T01:27:21.795Z,70.55
2023-05-04T01:29:54.129Z,70.72
2023-05-04T01:32:24.233Z,70.57
2023-05-04T01:34:53.296Z,70.03
2023-05-04T01:37:23.465Z,70.57
2023-05-04T01:39:52.995Z,70.30
2023-05-04T01:42:21.678Z,69.74
2023-05-04T01:44:50.483Z,69.98
2023-05-04T01:47:19.496Z,69.64
2023-05-04T01:49:48.148Z,70.31
2023-05-04T01:52:17.812Z,70.79
2023-05-04T01:54:48.205Z,70.86
2023-05-04T01:57:17.049Z,71.00
2023-05-04T01:59:46.211Z,70.17
2023-05-04T02:02:15.109Z,70.54
2023-05-04T02:04:44.198Z,70.38
2023-05-04T02:07:12.984Z,70.07
2023-05-04T02:09:41.657Z,69.12
2023-05-04T02:12:12.663Z,69.57
2023-05-04T02:14:41.315Z,70.77
2023-05-04T02:17:10.395Z,70.13
2023-05-04T02:19:39.029Z,70.34
2023-05-04T02:22:08.565Z,70.52
2023-05-04T02:24:37.509Z,72.07
2023-05-04T02:27:08.627Z,72.20
2023-05-04T02:29:39.375Z,71.57
2023-05-04T02:32:09.446Z,71.59
2023-05-04T02:34:38.346Z,71.66
2023-05-04T02:37:07.763Z,71.47
2023-05-04T02:39:36.791Z,71.30
2023-05-04T02:42:06.119Z,70.84
2023-05-04T02:44:35.019Z,69.41
2023-05-04T02:47:05.963Z,70.30
2023-05-04T02:49:34.747Z,70.93
2023-05-04T02:52:03.264Z,72.40
2023-05-04T02:54:32.042Z,71.94
2023-05-04T02:57:00.986Z,73.01
2023-05-04T02:59:29.752Z,73.11
2023-05-04T03:01:58.475Z,73.19
2023-05-04T03:04:28.917Z,71.90
2023-05-04T03:06:57.582Z,71.98
2023-05-04T03:09:26.210Z,72.18
2023-05-04T03:11:58.274Z,72.45
2023-05-04T03:14:27.142Z,72.88
2023-05-04T03:16:56.117Z,72.72
2023-05-04T03:19:25.136Z,73.71
2023-05-04T03:21:55.293Z,73.37
2023-05-04T03:24:24.259Z,73.44
2023-05-04T03:26:53.068Z,73.54
2023-05-04T03:29:21.754Z,74.21
2023-05-04T03:31:51.251Z,73.11
2023-05-04T03:34:21.673Z,73.40
2023-05-04T03:36:51.227Z,73.41
2023-05-04T03:39:21.326Z,74.54
2023-05-04T03:41:52.345Z,74.56
2023-05-04T03:44:21.971Z,75.54
2023-05-04T03:46:50.732Z,74.38
2023-05-04T03:49:19.489Z,74.92
2023-05-04T03:51:48.454Z,75.65
2023-05-04T03:54:17.144Z,74.80
2023-05-04T03:56:47.213Z,74.06
2023-05-04T03:59:17.941Z,74.22
2023-05-04T04:01:50.324Z,73.50
2023-05-04T04:04:19.596Z,73.90
2023-05-04T04:06:48.248Z,73.68
2023-05-04T04:09:17.022Z,74.05
2023-05-04T04:11:48.372Z,75.18
2023-05-04T04:14:17.044Z,74.05
2023-05-04T04:16:46.066Z,73.89
2023-05-04T04:19:14.819Z,73.20
2023-05-04T04:21:43.514Z,71.57
2023-05-04T04:24:12.475Z,71.46
2023-05-04T04:26:41.265Z,73.94
2023-05-04T04:29:12.256Z,72.24
2023-05-04T04:31:41.342Z,73.40
2023-05-04T04:34:10.005Z,73.00
2023-05-04T04:36:38.730Z,72.72
2023-05-04T04:39:10.484Z,73.99
2023-05-04T04:41:39.519Z,71.93
2023-05-04T04:44:11.664Z,70.52
2023-05-04T04:46:41.830Z,71.27
2023-05-04T04:49:10.733Z,70.80
2023-05-04T04:51:41.145Z,70.36
2023-05-04T04:54:10.110Z,70.53
2023-05-04T04:56:40.514Z,70.50
2023-05-04T04:59:10.640Z,69.38
2023-05-04T05:01:42.103Z,66.26
2023-05-04T05:04:10.638Z,68.33
2023-05-04T05:06:39.533Z,67.30
2023-05-04T05:09:09.556Z,67.54
2023-05-04T05:11:38.203Z,68.77
2023-05-04T05:14:07.092Z,69.34
2023-05-04T05:16:35.963Z,68.27
2023-05-04T05:19:05.983Z,66.40
2023-05-04T05:21:35.040Z,65.98
2023-05-04T05:24:03.950Z,65.29
2023-05-04T05:26:33.396Z,64.49
2023-05-04T05:29:02.647Z,62.76
2023-05-04T05:31:31.966Z,62.52
2023-05-04T05:34:00.711Z,63.47
2023-05-04T05:36:31.043Z,61.51
2023-05-04T05:38:59.716Z,61.22
2023-05-04T05:41:28.319Z,59.49
2023-05-04T05:43:57.269Z,58.52
2023-05-04T05:46:26.079Z,58.25
2023-05-04T05:48:54.792Z,54.85
2023-05-04T05:51:23.696Z,52.94
2023-05-04T05:53:53.743Z,52.52
2023-05-04T05:56:22.433Z,50.94
2023-05-04T05:58:52.325Z,51.84
2023-05-04T06:01:21.044Z,50.46
2023-05-04T06:03:50.154Z,50.51
2023-05-04T06:06:19.068Z,48.55
2023-05-04T06:08:47.739Z,51.19
2023-05-04T06:11:17.982Z,53.29
2023-05-04T06:13:48.184Z,51.25
2023-05-04T06:16:17.255Z,51.12
2023-05-04T06:18:45.952Z,52.45
2023-05-04T06:21:14.646Z,52.99
2023-05-04T06:23:43.603Z,53.07
2023-05-04T06:26:12.208Z,51.61
2023-05-04T06:28:42.279Z,51.01
2023-05-04T06:31:11.271Z,50.32
2023-05-04T06:33:39.983Z,49.20
2023-05-04T06:36:09.062Z,50.33
2023-05-04T06:38:39.137Z,50.31
2023-05-04T06:41:08.269Z,49.63
2023-05-04T06:43:36.988Z,49.71
2023-05-04T06:46:07.312Z,49.87
2023-05-04T06:48:36.037Z,48.95
2023-05-04T06:51:04.882Z,49.51
2023-05-04T06:53:33.832Z,49.65
2023-05-04T06:56:02.648Z,49.70
2023-05-04T06:58:31.322Z,48.94
2023-05-04T07:01:00.277Z,49.11
2023-05-04T07:03:30.304Z,48.21
2023-05-04T07:05:58.969Z,48.37
2023-05-04T07:08:28.052Z,49.09
2023-05-04T07:10:56.941Z,48.07
2023-05-04T07:13:25.592Z,48.43
2023-05-04T07:15:54.437Z,46.65
2023-05-04T07:18:23.679Z,48.03
2023-05-04T07:20:58.726Z,45.62
2023-05-04T07:23:30.972Z,45.98
2023-05-04T07:25:59.661Z,45.14
2023-05-04T07:28:28.446Z,44.82
2023-05-04T07:30:57.424Z,47.25
2023-05-04T07:33:26.665Z,46.66
2023-05-04T07:35:59.709Z,45.48
2023-05-04T07:38:29.257Z,46.65
2023-05-04T07:40:57.970Z,44.35
2023-05-04T07:43:26.757Z,45.13
2023-05-04T07:45:55.714Z,45.73
2023-05-04T07:48:26.356Z,44.47
2023-05-04T07:50:55.695Z,45.29
2023-05-04T07:53:26.801Z,44.93
2023-05-04T07:55:57.357Z,46.01
2023-05-04T07:58:26.016Z,46.23
2023-05-04T08:00:54.972Z,46.07
2023-05-04T08:03:23.978Z,46.10
2023-05-04T08:05:52.882Z,45.75
2023-05-04T08:08:21.866Z,45.58
2023-05-04T08:10:52.657Z,45.33
2023-05-04T08:13:21.294Z,45.26
2023-05-04T08:15:50.349Z,45.12
2023-05-04T08:18:19.442Z,45.11
2023-05-04T08:20:48.260Z,48.34
2023-05-04T08:23:16.971Z,45.43
2023-05-04T08:25:45.911Z,46.73
2023-05-04T08:28:16.119Z,46.86
2023-05-04T08:30:44.995Z,45.78
2023-05-04T08:33:14.021Z,43.95
2023-05-04T08:35:42.678Z,44.96
2023-05-04T08:38:11.395Z,46.05
2023-05-04T08:40:41.992Z,45.25
2023-05-04T08:43:11.138Z,43.27
2023-05-04T08:45:41.798Z,44.12
2023-05-04T08:48:11.100Z,44.07
2023-05-04T08:50:40.073Z,43.78
2023-05-04T08:53:12.601Z,45.04
2023-05-04T08:55:43.467Z,43.61
2023-05-04T08:58:12.984Z,44.90
2023-05-04T09:00:44.528Z,44.20
2023-05-04T09:03:13.703Z,43.44
2023-05-04T09:05:43.624Z,43.72
2023-05-04T09:08:12.378Z,43.54
2023-05-04T09:10:41.091Z,42.47
2023-05-04T09:13:10.045Z,40.82
2023-05-04T09:15:38.916Z,41.42
2023-05-04T09:18:10.488Z,40.26
2023-05-04T09:20:47.266Z,40.82
2023-05-04T09:23:17.784Z,39.90
2023-05-04T09:25:50.450Z,40.09
2023-05-04T09:28:20.403Z,39.36
2023-05-04T09:30:49.946Z,39.81
2023-05-04T09:33:27.254Z,39.28
2023-05-04T09:35:57.262Z,38.81
2023-05-04T09:38:27.408Z,38.35
2023-05-04T09:40:56.605Z,39.44
2023-05-04T09:43:25.520Z,40.49
2023-05-04T09:45:54.427Z,40.99
2023-05-04T09:48:27.235Z,40.07
2023-05-04T09:50:57.265Z,41.69
2023-05-04T09:53:27.268Z,41.13
2023-05-04T09:56:08.192Z,40.55
2023-05-04T09:58:37.432Z,40.25
2023-05-04T10:01:06.740Z,39.67
2023-05-04T10:03:37.226Z,39.66
2023-05-04T10:06:06.879Z,40.26
2023-05-04T10:08:36.230Z,41.83
2023-05-04T10:11:05.214Z,45.09
2023-05-04T10:13:36.056Z,45.26
2023-05-04T10:16:16.410Z,45.99
2023-05-04T10:19:05.455Z,46.84
2023-05-04T10:21:44.870Z,48.19
2023-05-04T10:24:41.635Z,46.80
2023-05-04T10:27:12.869Z,45.77
2023-05-04T10:29:42.168Z,45.20
2023-05-04T10:32:21.111Z,44.67
2023-05-04T10:34:51.659Z,45.04
2023-05-04T10:37:21.830Z,44.50
2023-05-04T10:39:56.580Z,44.40
2023-05-04T10:42:25.805Z,45.60
2023-05-04T10:44:56.050Z,44.07
2023-05-04T10:47:30.209Z,43.70
2023-05-04T10:50:04.802Z,43.48
2023-05-04T10:52:34.564Z,42.92
2023-05-04T10:55:05.511Z,40.28
2023-05-04T10:57:35.417Z,39.88
2023-05-04T11:00:04.425Z,39.86
2023-05-04T11:02:34.055Z,40.69
2023-05-04T11:05:07.054Z,39.45
2023-05-04T11:07:37.737Z,38.22
2023-05-04T11:10:09.457Z,38.54
2023-05-04T11:12:39.053Z,38.43
2023-05-04T11:15:09.114Z,36.28
2023-05-04T11:17:46.338Z,36.80
2023-05-04T11:20:23.926Z,35.68
2023-05-04T11:22:53.120Z,35.01
2023-05-04T11:25:28.630Z,34.85
2023-05-04T11:27:58.207Z,33.82
2023-05-04T11:30:32.557Z,36.60
2023-05-04T11:33:01.594Z,37.54
2023-05-04T11:35:32.303Z,38.92
2023-05-04T11:38:00.966Z,40.40
2023-05-04T11:40:29.996Z,42.03
2023-05-04T11:43:01.485Z,43.52
2023-05-04T11:45:32.427Z,43.39
2023-05-04T11:48:01.709Z,43.59
2023-05-04T11:50:32.556Z,43.79
2023-05-04T11:53:04.812Z,44.69
2023-05-04T11:55:34.886Z,45.01
2023-05-04T11:58:04.972Z,45.09
2023-05-04T12:00:40.771Z,46.05
2023-05-04T12:03:12.936Z,47.18
2023-05-04T12:05:48.919Z,46.98
2023-05-04T12:08:26.153Z,47.66
2023-05-04T12:11:10.186Z,47.08
2023-05-04T12:13:40.554Z,47.86
2023-05-04T12:16:10.696Z,47.25
2023-05-04T12:18:39.737Z,47.57
2023-05-04T12:21:15.885Z,45.95
2023-05-04T12:23:45.563Z,46.02
2023-05-04T12:26:17.431Z,46.94
2023-05-04T12:28:48.514Z,45.31
2023-05-04T12:31:17.432Z,45.46
2023-05-04T12:33:46.512Z,46.43
2023-05-04T12:36:17.337Z,46.00
2023-05-04T12:38:46.164Z,45.27
2023-05-04T12:41:15.116Z,42.22
2023-05-04T12:43:44.020Z,40.86
2023-05-04T12:46:12.821Z,41.23
2023-05-04T12:48:41.777Z,40.27
2023-05-04T12:51:10.370Z,40.22
2023-05-04T12:53:41.200Z,40.93
2023-05-04T12:56:10.471Z,39.49
2023-05-04T12:58:39.145Z,38.43
2023-05-04T13:01:07.913Z,38.68
2023-05-04T13:03:37.058Z,40.15
2023-05-04T13:06:06.060Z,40.03
2023-05-04T13:08:34.697Z,40.62
2023-05-04T13:11:05.053Z,39.96
2023-05-04T13:13:34.211Z,39.29
2023-05-04T13:16:03.382Z,38.79
2023-05-04T13:18:32.135Z,39.85
2023-05-04T13:21:00.748Z,38.50
2023-05-04T13:23:30.821Z,39.37
2023-05-04T13:25:59.454Z,40.87
2023-05-04T13:28:29.512Z,41.22
2023-05-04T13:30:58.521Z,41.27
2023-05-04T13:33:29.906Z,40.71
2023-05-04T13:36:01.990Z,41.94
2023-05-04T13:38:30.531Z,43.14
2023-05-04T13:40:59.412Z,43.37
2023-05-04T13:43:29.894Z,43.90
2023-05-04T13:46:03.808Z,44.83
2023-05-04T13:48:34.159Z,44.91
2023-05-04T13:51:03.960Z,45.13
2023-05-04T13:53:32.593Z,45.48
2023-05-04T13:56:01.586Z,45.92
2023-05-04T13:58:31.875Z,45.87
2023-05-04T14:01:00.820Z,46.18
2023-05-04T14:03:31.985Z,46.09
2023-05-04T14:06:00.654Z,45.80
2023-05-04T14:08:29.286Z,46.19
2023-05-04T14:10:58.700Z,45.70
2023-05-04T14:13:27.447Z,44.95
2023-05-04T14:15:58.392Z,46.00
2023-05-04T14:18:32.095Z,46.56
2023-05-04T14:21:00.983Z,46.88
2023-05-04T14:23:29.931Z,46.35
2023-05-04T14:25:58.609Z,46.11
2023-05-04T14:28:27.304Z,45.71
2023-05-04T14:30:58.326Z,45.44
2023-05-04T14:33:26.955Z,44.61
2023-05-04T14:35:55.876Z,45.28
2023-05-04T14:38:24.541Z,45.59
2023-05-04T14:40:55.342Z,45.71
2023-05-04T14:43:23.993Z,45.26
2023-05-04T14:45:55.671Z,45.48
2023-05-04T14:48:26.630Z,45.19
2023-05-04T14:50:55.561Z,45.67
2023-05-04T14:53:25.011Z,45.78
2023-05-04T14:55:53.712Z,45.56
2023-05-04T14:58:22.513Z,45.90
2023-05-04T15:00:55.198Z,45.92
2023-05-04T15:03:24.241Z,45.94
2023-05-04T15:05:54.540Z,46.21
2023-05-04T15:08:23.165Z,47.27
2023-05-04T15:10:51.931Z,47.43
2023-05-04T15:13:21.068Z,47.11
2023-05-04T15:15:49.734Z,45.52
2023-05-04T15:18:18.404Z,45.12
2023-05-04T15:20:47.628Z,44.50
2023-05-04T15:23:17.777Z,43.48
2023-05-04T15:25:46.774Z,42.81
2023-05-04T15:28:15.807Z,42.12
2023-05-04T15:30:45.053Z,41.74
2023-05-04T15:33:13.679Z,42.04
2023-05-04T15:35:43.008Z,42.31
2023-05-04T15:38:11.722Z,41.31
2023-05-04T15:40:41.762Z,40.89
2023-05-04T15:43:10.999Z,42.09
2023-05-04T15:45:41.378Z,43.04
2023-05-04T15:48:10.491Z,42.89
2023-05-04T15:50:39.383Z,43.02
2023-05-04T15:53:08.066Z,43.03
2023-05-04T15:55:36.982Z,42.75
2023-05-04T15:58:07.131Z,42.42
2023-05-04T16:00:35.873Z,42.21
2023-05-04T16:03:05.583Z,43.02
2023-05-04T16:05:34.272Z,42.73
2023-05-04T16:08:02.916Z,42.52
2023-05-04T16:10:31.868Z,42.28
2023-05-04T16:13:04.064Z,42.73
2023-05-04T16:15:34.656Z,42.27
2023-05-04T16:18:03.356Z,41.51
2023-05-04T16:20:32.053Z,42.71
2023-05-04T16:23:01.081Z,43.12
2023-05-04T16:25:29.703Z,43.86
2023-05-04T16:27:58.366Z,44.09
2023-05-04T16:30:32.899Z,44.17
2023-05-04T16:33:07.174Z,43.81
2023-05-04T16:35:36.881Z,43.97
2023-05-04T16:38:05.583Z,45.34
2023-05-04T16:40:34.451Z,45.35
2023-05-04T16:43:03.360Z,45.77
2023-05-04T16:45:32.966Z,46.20
2023-05-04T16:48:03.712Z,47.14
2023-05-04T16:53:01.076Z,46.72
2023-05-04T16:55:29.696Z,47.52
2023-05-04T16:57:59.266Z,46.92
2023-05-04T17:00:29.162Z,47.48
2023-05-04T17:02:58.124Z,47.36
2023-05-04T17:05:28.290Z,47.92
2023-05-04T17:07:56.969Z,48.29
2023-05-04T17:10:25.902Z,48.17
2023-05-04T17:12:55.024Z,48.49
2023-05-04T17:15:23.900Z,48.02
2023-05-04T17:17:56.208Z,48.19
2023-05-04T17:20:28.734Z,48.54
2023-05-04T17:23:01.779Z,48.66
2023-05-04T17:25:30.908Z,48.72
2023-05-04T17:27:59.826Z,48.94
2023-05-04T17:30:28.774Z,48.31
2023-05-04T17:32:57.632Z,49.08
2023-05-04T17:35:26.972Z,49.13
2023-05-04T17:37:58.445Z,49.01
2023-05-04T17:40:29.547Z,49.48
2023-05-04T17:42:58.190Z,50.22
2023-05-04T17:45:26.897Z,49.78
2023-05-04T17:47:57.212Z,49.68
2023-05-04T17:50:26.403Z,49.80
2023-05-04T17:52:55.475Z,50.04
2023-05-04T17:55:25.373Z,50.38
2023-05-04T17:57:55.595Z,49.91
2023-05-04T18:00:25.164Z,51.14
2023-05-04T18:02:54.224Z,51.49
2023-05-04T18:05:22.980Z,51.04
2023-05-04T18:07:51.641Z,50.83
2023-05-04T18:10:20.770Z,50.63
2023-05-04T18:12:49.465Z,51.21
2023-05-04T18:15:19.864Z,51.52
2023-05-04T18:17:50.676Z,51.37
2023-05-04T18:20:19.630Z,52.04
2023-05-04T18:22:48.774Z,52.13
2023-05-04T18:25:17.825Z,52.08
2023-05-04T18:27:46.554Z,51.82
2023-05-04T18:30:16.531Z,52.29
2023-05-04T18:32:46.900Z,51.85
2023-05-04T18:35:17.070Z,52.01
2023-05-04T18:37:45.849Z,52.12
2023-05-04T18:40:14.766Z,52.20
2023-05-04T18:42:44.132Z,52.74
2023-05-04T18:45:14.611Z,53.02
2023-05-04T18:47:45.008Z,53.62
2023-05-04T18:50:15.724Z,53.90
2023-05-04T18:52:46.853Z,54.33
2023-05-04T18:55:16.392Z,54.33
2023-05-04T18:57:46.035Z,54.46
2023-05-04T19:00:16.343Z,54.93
2023-05-04T19:02:46.107Z,54.78
2023-05-04T19:05:17.716Z,54.96
2023-05-04T19:07:47.091Z,55.21
2023-05-04T19:10:15.820Z,55.26
2023-05-04T19:12:44.491Z,55.34
2023-05-04T19:15:13.860Z,55.71
2023-05-04T19:17:42.672Z,55.93
2023-05-04T19:20:12.043Z,55.85
2023-05-04T19:22:42.756Z,56.03
2023-05-04T19:25:20.307Z,56.29
2023-05-04T19:27:56.201Z,56.41
2023-05-04T19:30:25.407Z,56.88
2023-05-04T19:32:54.247Z,56.69
2023-05-04T19:35:23.454Z,56.60
2023-05-04T19:37:54.326Z,56.90
2023-05-04T19:40:23.115Z,56.99
2023-05-04T19:42:51.941Z,57.23
2023-05-04T19:45:20.623Z,57.40
2023-05-04T19:47:50.625Z,57.08
2023-05-04T19:50:19.816Z,57.04
2023-05-04T19:52:49.164Z,57.70
2023-05-04T19:55:19.885Z,57.56
2023-05-04T19:57:50.233Z,57.28
2023-05-04T20:00:19.981Z,57.54
2023-05-04T20:02:49.094Z,57.44
2023-05-04T20:05:17.964Z,57.90
2023-05-04T20:07:46.731Z,58.13
2023-05-04T20:10:15.618Z,58.80
2023-05-04T20:12:45.858Z,58.90
2023-05-04T20:15:14.971Z,59.10
2023-05-04T20:17:43.754Z,58.83
2023-05-04T20:20:19.060Z,58.86
2023-05-04T20:22:49.159Z,59.01
2023-05-04T20:25:17.782Z,58.96
2023-05-04T20:27:48.757Z,59.26
2023-05-04T20:30:17.983Z,59.35
2023-05-04T20:32:46.811Z,59.17
2023-05-04T20:35:16.170Z,59.49
2023-05-04T20:37:45.130Z,59.71
2023-05-04T20:40:16.858Z,59.80
2023-05-04T20:42:47.255Z,60.20
2023-05-04T20:45:15.952Z,60.10
2023-05-04T20:47:45.080Z,59.82
2023-05-04T20:50:16.463Z,60.30
2023-05-04T20:52:45.837Z,60.11
2023-05-04T20:55:14.813Z,60.49
2023-05-04T20:57:43.530Z,60.98
2023-05-04T21:00:15.331Z,60.91
2023-05-04T21:02:44.094Z,61.59
2023-05-04T21:05:13.420Z,61.61
2023-05-04T21:07:42.157Z,61.08
2023-05-04T21:10:11.403Z,61.02
2023-05-04T21:12:40.557Z,61.16
2023-05-04T21:15:10.932Z,64.15
2023-05-04T21:17:43.868Z,65.44
2023-05-04T21:20:12.989Z,65.45
2023-05-04T21:22:41.885Z,64.60
2023-05-04T21:25:10.780Z,64.12
2023-05-04T21:27:39.460Z,62.25
2023-05-04T21:30:10.075Z,61.89
2023-05-04T21:32:39.155Z,62.17
2023-05-04T21:35:10.376Z,62.67
2023-05-04T21:37:39.012Z,62.17
2023-05-04T21:40:10.357Z,61.88
2023-05-04T21:42:39.057Z,61.28
2023-05-04T21:45:08.926Z,62.03
2023-05-04T21:47:37.705Z,61.33
2023-05-04T21:50:07.928Z,61.92
2023-05-04T21:52:38.419Z,61.62
2023-05-04T21:55:08.056Z,61.33
2023-05-04T21:57:37.916Z,60.93
2023-05-04T22:00:12.304Z,61.88
2023-05-04T22:02:41.320Z,61.25
2023-05-04T22:05:11.367Z,62.40
2023-05-04T22:07:41.399Z,61.41
2023-05-04T22:10:14.042Z,61.98
2023-05-04T22:12:42.734Z,63.85
2023-05-04T22:15:12.820Z,63.94
2023-05-04T22:17:41.594Z,64.32
2023-05-04T22:20:12.384Z,64.51
2023-05-04T22:22:42.665Z,65.46
2023-05-04T22:25:11.408Z,63.45
2023-05-04T22:27:40.067Z,62.42
2023-05-04T22:30:10.173Z,62.30
2023-05-04T22:32:38.902Z,61.11
2023-05-04T22:35:08.228Z,61.41
2023-05-04T22:37:37.223Z,60.49
2023-05-04T22:40:09.738Z,57.19
2023-05-04T22:42:38.814Z,56.42
2023-05-04T22:45:08.336Z,54.41
2023-05-04T22:47:36.974Z,53.40
2023-05-04T22:50:07.170Z,53.31
2023-05-04T22:52:36.059Z,52.49
2023-05-04T22:55:05.835Z,52.43
2023-05-04T22:57:38.191Z,51.62
2023-05-04T23:00:08.604Z,52.63
2023-05-04T23:02:37.888Z,52.50
2023-05-04T23:05:08.947Z,52.47
2023-05-04T23:07:37.889Z,53.10
2023-05-04T23:10:08.001Z,53.04
2023-05-04T23:12:38.464Z,53.59
2023-05-04T23:15:08.896Z,53.12
2023-05-04T23:17:38.763Z,53.24
2023-05-04T23:20:09.309Z,52.79
2023-05-04T23:22:38.149Z,53.07
2023-05-04T23:25:08.426Z,52.81
2023-05-04T23:27:39.534Z,52.65
2023-05-04T23:30:09.895Z,52.89
2023-05-04T23:32:38.835Z,53.07
2023-05-04T23:35:08.570Z,52.91
2023-05-04T23:37:37.312Z,53.28
2023-05-04T23:40:07.171Z,53.19
2023-05-04T23:42:41.011Z,52.59
2023-05-04T23:45:10.569Z,52.54
2023-05-04T23:47:39.747Z,52.00
2023-05-04T23:50:09.964Z,51.95
2023-05-04T23:52:39.035Z,52.28
2023-05-04T23:55:07.982Z,52.70
2023-05-04T23:57:36.659Z,53.54
